sensor_id;sensor_type;location;lat;lon;timestamp;temperature;humidity
2721;DHT22;1368;49.484;11.112;2022-07-06T00:00:47;18.70;84.10
2721;DHT22;1368;49.484;11.112;2022-07-06T00:03:13;18.70;83.50
2721;DHT22;1368;49.484;11.112;2022-07-06T00:05:38;18.70;83.60
2721;DHT22;1368;49.484;11.112;2022-07-06T00:08:04;18.70;83.80
2721;DHT22;1368;49.484;11.112;2022-07-06T00:10:30;19.20;84.50
2721;DHT22;1368;49.484;11.112;2022-07-06T00:12:56;18.60;84.50
2721;DHT22;1368;49.484;11.112;2022-07-06T00:15:21;18.50;84.70
2721;DHT22;1368;49.484;11.112;2022-07-06T00:17:47;18.50;84.70
2721;DHT22;1368;49.484;11.112;2022-07-06T00:20:12;18.50;84.70
2721;DHT22;1368;49.484;11.112;2022-07-06T00:22:38;18.40;84.90
2721;DHT22;1368;49.484;11.112;2022-07-06T00:25:04;18.40;85.70
2721;DHT22;1368;49.484;11.112;2022-07-06T00:27:30;18.30;86.70
2721;DHT22;1368;49.484;11.112;2022-07-06T00:29:55;18.20;87.10
2721;DHT22;1368;49.484;11.112;2022-07-06T00:32:21;18.60;87.90
2721;DHT22;1368;49.484;11.112;2022-07-06T00:34:46;18.00;88.10
2721;DHT22;1368;49.484;11.112;2022-07-06T00:37:12;18.00;88.50
2721;DHT22;1368;49.484;11.112;2022-07-06T00:39:40;17.90;88.80
2721;DHT22;1368;49.484;11.112;2022-07-06T00:42:06;17.90;89.30
2721;DHT22;1368;49.484;11.112;2022-07-06T00:44:32;17.90;90.00
2721;DHT22;1368;49.484;11.112;2022-07-06T00:46:59;17.90;90.30
2721;DHT22;1368;49.484;11.112;2022-07-06T00:49:24;17.90;90.50
2721;DHT22;1368;49.484;11.112;2022-07-06T00:52:09;17.80;90.50
2721;DHT22;1368;49.484;11.112;2022-07-06T00:54:36;17.80;90.60
2721;DHT22;1368;49.484;11.112;2022-07-06T00:57:02;17.80;91.10
2721;DHT22;1368;49.484;11.112;2022-07-06T00:59:28;17.70;91.40
2721;DHT22;1368;49.484;11.112;2022-07-06T01:01:54;17.70;91.60
2721;DHT22;1368;49.484;11.112;2022-07-06T01:04:19;17.70;91.90
2721;DHT22;1368;49.484;11.112;2022-07-06T01:06:45;17.70;91.80
2721;DHT22;1368;49.484;11.112;2022-07-06T01:09:12;17.70;92.00
2721;DHT22;1368;49.484;11.112;2022-07-06T01:11:38;17.80;92.20
2721;DHT22;1368;49.484;11.112;2022-07-06T01:14:03;17.80;92.40
2721;DHT22;1368;49.484;11.112;2022-07-06T01:16:30;17.70;92.40
2721;DHT22;1368;49.484;11.112;2022-07-06T01:18:55;17.80;92.60
2721;DHT22;1368;49.484;11.112;2022-07-06T01:21:21;17.70;92.50
2721;DHT22;1368;49.484;11.112;2022-07-06T01:23:47;17.70;92.70
2721;DHT22;1368;49.484;11.112;2022-07-06T01:26:15;17.60;93.00
2721;DHT22;1368;49.484;11.112;2022-07-06T01:28:41;17.60;93.20
2721;DHT22;1368;49.484;11.112;2022-07-06T01:31:24;17.80;93.40
2721;DHT22;1368;49.484;11.112;2022-07-06T01:33:52;17.50;93.70
2721;DHT22;1368;49.484;11.112;2022-07-06T01:36:18;17.50;94.10
2721;DHT22;1368;49.484;11.112;2022-07-06T01:38:51;17.50;94.20
2721;DHT22;1368;49.484;11.112;2022-07-06T01:41:18;17.40;94.50
2721;DHT22;1368;49.484;11.112;2022-07-06T01:43:44;17.40;94.70
2721;DHT22;1368;49.484;11.112;2022-07-06T01:46:10;17.40;95.10
2721;DHT22;1368;49.484;11.112;2022-07-06T01:48:36;17.30;95.30
2721;DHT22;1368;49.484;11.112;2022-07-06T01:51:03;17.30;95.50
2721;DHT22;1368;49.484;11.112;2022-07-06T01:53:28;17.30;95.80
2721;DHT22;1368;49.484;11.112;2022-07-06T01:55:54;17.50;96.20
2721;DHT22;1368;49.484;11.112;2022-07-06T01:58:19;17.10;96.20
2721;DHT22;1368;49.484;11.112;2022-07-06T02:00:45;17.20;96.60
2721;DHT22;1368;49.484;11.112;2022-07-06T02:03:11;17.00;96.70
2721;DHT22;1368;49.484;11.112;2022-07-06T02:05:36;17.00;96.90
2721;DHT22;1368;49.484;11.112;2022-07-06T02:08:02;17.20;97.20
2721;DHT22;1368;49.484;11.112;2022-07-06T02:10:27;16.90;97.40
2721;DHT22;1368;49.484;11.112;2022-07-06T02:12:53;16.90;97.40
2721;DHT22;1368;49.484;11.112;2022-07-06T02:15:18;17.30;97.50
2721;DHT22;1368;49.484;11.112;2022-07-06T02:17:44;16.90;97.40
2721;DHT22;1368;49.484;11.112;2022-07-06T02:20:10;16.90;97.60
2721;DHT22;1368;49.484;11.112;2022-07-06T02:22:35;16.90;97.70
2721;DHT22;1368;49.484;11.112;2022-07-06T02:25:01;16.90;97.80
2721;DHT22;1368;49.484;11.112;2022-07-06T02:27:27;16.80;97.80
2721;DHT22;1368;49.484;11.112;2022-07-06T02:29:52;16.80;98.20
2721;DHT22;1368;49.484;11.112;2022-07-06T02:32:18;16.80;98.40
2721;DHT22;1368;49.484;11.112;2022-07-06T02:34:43;16.80;98.50
2721;DHT22;1368;49.484;11.112;2022-07-06T02:37:09;16.80;99.00
2721;DHT22;1368;49.484;11.112;2022-07-06T02:39:35;16.80;99.30
2721;DHT22;1368;49.484;11.112;2022-07-06T02:42:00;16.80;99.70
2721;DHT22;1368;49.484;11.112;2022-07-06T02:44:26;16.90;99.60
2721;DHT22;1368;49.484;11.112;2022-07-06T02:46:51;16.90;99.60
2721;DHT22;1368;49.484;11.112;2022-07-06T02:49:17;16.90;99.50
2721;DHT22;1368;49.484;11.112;2022-07-06T02:51:43;16.90;99.50
2721;DHT22;1368;49.484;11.112;2022-07-06T02:54:08;17.20;99.70
2721;DHT22;1368;49.484;11.112;2022-07-06T02:56:34;17.00;99.60
2721;DHT22;1368;49.484;11.112;2022-07-06T02:58:59;17.00;99.80
2721;DHT22;1368;49.484;11.112;2022-07-06T03:01:25;17.00;99.80
2721;DHT22;1368;49.484;11.112;2022-07-06T03:03:50;17.00;99.80
2721;DHT22;1368;49.484;11.112;2022-07-06T03:06:16;16.90;99.90
2721;DHT22;1368;49.484;11.112;2022-07-06T03:08:42;16.90;99.90
2721;DHT22;1368;49.484;11.112;2022-07-06T03:11:07;16.80;99.90
2721;DHT22;1368;49.484;11.112;2022-07-06T03:13:33;16.80;99.90
2721;DHT22;1368;49.484;11.112;2022-07-06T03:15:59;16.70;99.90
2721;DHT22;1368;49.484;11.112;2022-07-06T03:18:25;16.70;99.90
2721;DHT22;1368;49.484;11.112;2022-07-06T03:20:50;16.70;99.90
2721;DHT22;1368;49.484;11.112;2022-07-06T03:23:16;16.60;99.90
2721;DHT22;1368;49.484;11.112;2022-07-06T03:25:41;16.60;99.90
2721;DHT22;1368;49.484;11.112;2022-07-06T03:28:07;16.70;99.90
2721;DHT22;1368;49.484;11.112;2022-07-06T03:30:32;16.70;99.90
2721;DHT22;1368;49.484;11.112;2022-07-06T03:32:58;16.70;99.90
2721;DHT22;1368;49.484;11.112;2022-07-06T03:35:24;16.70;99.90
2721;DHT22;1368;49.484;11.112;2022-07-06T03:37:49;16.80;99.90
2721;DHT22;1368;49.484;11.112;2022-07-06T03:40:15;16.90;99.90
2721;DHT22;1368;49.484;11.112;2022-07-06T03:42:41;16.90;99.90
2721;DHT22;1368;49.484;11.112;2022-07-06T03:45:07;17.30;99.90
2721;DHT22;1368;49.484;11.112;2022-07-06T03:47:33;17.50;99.90
2721;DHT22;1368;49.484;11.112;2022-07-06T03:49:58;17.60;99.90
2721;DHT22;1368;49.484;11.112;2022-07-06T03:52:24;17.70;99.90
2721;DHT22;1368;49.484;11.112;2022-07-06T03:54:49;17.90;99.90
2721;DHT22;1368;49.484;11.112;2022-07-06T03:57:15;18.20;99.70
2721;DHT22;1368;49.484;11.112;2022-07-06T03:59:41;18.50;99.40
2721;DHT22;1368;49.484;11.112;2022-07-06T04:02:06;18.80;98.70
2721;DHT22;1368;49.484;11.112;2022-07-06T04:04:33;19.10;98.20
2721;DHT22;1368;49.484;11.112;2022-07-06T04:06:59;19.60;97.40
2721;DHT22;1368;49.484;11.112;2022-07-06T04:09:25;20.10;97.00
2721;DHT22;1368;49.484;11.112;2022-07-06T04:11:51;20.40;95.90
2721;DHT22;1368;49.484;11.112;2022-07-06T04:14:17;20.40;95.10
2721;DHT22;1368;49.484;11.112;2022-07-06T04:16:42;20.40;94.90
2721;DHT22;1368;49.484;11.112;2022-07-06T04:19:08;20.20;95.00
2721;DHT22;1368;49.484;11.112;2022-07-06T04:21:33;20.00;95.40
2721;DHT22;1368;49.484;11.112;2022-07-06T04:23:59;20.10;95.70
2721;DHT22;1368;49.484;11.112;2022-07-06T04:26:25;20.50;95.70
2721;DHT22;1368;49.484;11.112;2022-07-06T04:28:50;21.10;95.00
2721;DHT22;1368;49.484;11.112;2022-07-06T04:31:16;22.40;94.20
2721;DHT22;1368;49.484;11.112;2022-07-06T04:33:42;22.70;92.60
2721;DHT22;1368;49.484;11.112;2022-07-06T04:36:11;23.40;91.30
2721;DHT22;1368;49.484;11.112;2022-07-06T04:38:36;23.50;89.50
2721;DHT22;1368;49.484;11.112;2022-07-06T04:41:02;23.40;88.70
2721;DHT22;1368;49.484;11.112;2022-07-06T04:43:28;23.00;88.70
2721;DHT22;1368;49.484;11.112;2022-07-06T04:45:54;22.80;89.80
2721;DHT22;1368;49.484;11.112;2022-07-06T04:48:19;22.40;90.30
2721;DHT22;1368;49.484;11.112;2022-07-06T04:50:45;22.10;90.70
2721;DHT22;1368;49.484;11.112;2022-07-06T04:53:10;21.90;91.10
2721;DHT22;1368;49.484;11.112;2022-07-06T04:55:36;21.70;91.50
2721;DHT22;1368;49.484;11.112;2022-07-06T04:58:02;21.30;91.90
2721;DHT22;1368;49.484;11.112;2022-07-06T05:00:27;21.10;92.20
2721;DHT22;1368;49.484;11.112;2022-07-06T05:02:53;21.00;92.60
2721;DHT22;1368;49.484;11.112;2022-07-06T05:05:19;20.90;92.80
2721;DHT22;1368;49.484;11.112;2022-07-06T05:07:44;21.00;93.00
2721;DHT22;1368;49.484;11.112;2022-07-06T05:10:12;21.00;93.40
2721;DHT22;1368;49.484;11.112;2022-07-06T05:12:38;21.60;93.20
2721;DHT22;1368;49.484;11.112;2022-07-06T05:15:04;21.90;92.10
2721;DHT22;1368;49.484;11.112;2022-07-06T05:17:30;22.00;91.80
2721;DHT22;1368;49.484;11.112;2022-07-06T05:19:56;21.90;91.60
2721;DHT22;1368;49.484;11.112;2022-07-06T05:22:22;22.20;91.50
2721;DHT22;1368;49.484;11.112;2022-07-06T05:24:47;22.60;91.30
2721;DHT22;1368;49.484;11.112;2022-07-06T05:27:13;23.00;90.80
2721;DHT22;1368;49.484;11.112;2022-07-06T05:29:38;23.50;90.30
2721;DHT22;1368;49.484;11.112;2022-07-06T05:32:04;23.40;88.80
2721;DHT22;1368;49.484;11.112;2022-07-06T05:34:30;23.70;88.80
2721;DHT22;1368;49.484;11.112;2022-07-06T05:36:55;23.40;88.50
2721;DHT22;1368;49.484;11.112;2022-07-06T05:39:21;23.10;88.50
2721;DHT22;1368;49.484;11.112;2022-07-06T05:41:48;23.60;88.90
2721;DHT22;1368;49.484;11.112;2022-07-06T05:44:14;24.20;88.80
2721;DHT22;1368;49.484;11.112;2022-07-06T05:46:39;25.30;85.40
2721;DHT22;1368;49.484;11.112;2022-07-06T05:49:05;26.10;81.50
2721;DHT22;1368;49.484;11.112;2022-07-06T05:51:49;27.10;79.90
2721;DHT22;1368;49.484;11.112;2022-07-06T05:54:15;27.80;74.50
2721;DHT22;1368;49.484;11.112;2022-07-06T05:56:41;28.20;73.10
2721;DHT22;1368;49.484;11.112;2022-07-06T05:59:07;28.60;72.00
2721;DHT22;1368;49.484;11.112;2022-07-06T06:01:32;28.70;69.80
2721;DHT22;1368;49.484;11.112;2022-07-06T06:03:58;28.10;68.80
2721;DHT22;1368;49.484;11.112;2022-07-06T06:06:28;27.50;69.00
2721;DHT22;1368;49.484;11.112;2022-07-06T06:08:56;27.70;69.90
2721;DHT22;1368;49.484;11.112;2022-07-06T06:11:22;28.30;67.60
2721;DHT22;1368;49.484;11.112;2022-07-06T06:13:47;28.00;68.30
2721;DHT22;1368;49.484;11.112;2022-07-06T06:16:13;27.90;68.70
2721;DHT22;1368;49.484;11.112;2022-07-06T06:18:38;28.80;67.90
2721;DHT22;1368;49.484;11.112;2022-07-06T06:21:04;30.10;65.90
2721;DHT22;1368;49.484;11.112;2022-07-06T06:23:30;29.70;62.90
2721;DHT22;1368;49.484;11.112;2022-07-06T06:25:55;29.30;64.00
2721;DHT22;1368;49.484;11.112;2022-07-06T06:28:21;29.80;64.60
2721;DHT22;1368;49.484;11.112;2022-07-06T06:30:46;30.40;62.70
2721;DHT22;1368;49.484;11.112;2022-07-06T06:33:14;30.30;60.80
2721;DHT22;1368;49.484;11.112;2022-07-06T06:35:44;29.90;63.20
2721;DHT22;1368;49.484;11.112;2022-07-06T06:38:10;30.50;61.70
2721;DHT22;1368;49.484;11.112;2022-07-06T06:40:36;30.60;61.90
2721;DHT22;1368;49.484;11.112;2022-07-06T06:43:02;31.50;60.20
2721;DHT22;1368;49.484;11.112;2022-07-06T06:45:28;32.30;58.20
2721;DHT22;1368;49.484;11.112;2022-07-06T06:47:54;32.80;57.60
2721;DHT22;1368;49.484;11.112;2022-07-06T06:50:19;33.00;56.20
2721;DHT22;1368;49.484;11.112;2022-07-06T06:52:45;33.40;55.40
2721;DHT22;1368;49.484;11.112;2022-07-06T06:55:11;33.70;54.20
2721;DHT22;1368;49.484;11.112;2022-07-06T06:57:36;33.20;53.40
2721;DHT22;1368;49.484;11.112;2022-07-06T07:00:03;32.60;54.90
2721;DHT22;1368;49.484;11.112;2022-07-06T07:02:29;32.80;55.30
2721;DHT22;1368;49.484;11.112;2022-07-06T07:04:55;33.30;54.50
2721;DHT22;1368;49.484;11.112;2022-07-06T07:07:20;33.00;54.50
2721;DHT22;1368;49.484;11.112;2022-07-06T07:09:46;33.40;55.20
2721;DHT22;1368;49.484;11.112;2022-07-06T07:12:12;33.10;54.00
2721;DHT22;1368;49.484;11.112;2022-07-06T07:14:37;31.90;55.90
2721;DHT22;1368;49.484;11.112;2022-07-06T07:17:03;32.30;56.00
2721;DHT22;1368;49.484;11.112;2022-07-06T07:19:29;32.60;55.50
2721;DHT22;1368;49.484;11.112;2022-07-06T07:21:54;32.70;55.00
2721;DHT22;1368;49.484;11.112;2022-07-06T07:24:20;32.20;54.50
2721;DHT22;1368;49.484;11.112;2022-07-06T07:26:46;32.40;52.90
2721;DHT22;1368;49.484;11.112;2022-07-06T07:29:12;32.00;53.40
2721;DHT22;1368;49.484;11.112;2022-07-06T07:31:37;32.20;54.40
2721;DHT22;1368;49.484;11.112;2022-07-06T07:34:03;32.70;53.60
2721;DHT22;1368;49.484;11.112;2022-07-06T07:36:28;32.60;53.80
2721;DHT22;1368;49.484;11.112;2022-07-06T07:38:54;32.80;54.20
2721;DHT22;1368;49.484;11.112;2022-07-06T07:41:20;32.00;53.00
2721;DHT22;1368;49.484;11.112;2022-07-06T07:43:45;31.40;53.00
2721;DHT22;1368;49.484;11.112;2022-07-06T07:46:11;31.40;53.40
2721;DHT22;1368;49.484;11.112;2022-07-06T07:48:36;31.30;53.40
2721;DHT22;1368;49.484;11.112;2022-07-06T07:51:02;31.80;53.40
2721;DHT22;1368;49.484;11.112;2022-07-06T07:53:28;31.20;52.30
2721;DHT22;1368;49.484;11.112;2022-07-06T07:55:53;30.40;53.60
2721;DHT22;1368;49.484;11.112;2022-07-06T07:58:19;30.50;53.30
2721;DHT22;1368;49.484;11.112;2022-07-06T08:00:45;31.40;53.40
2721;DHT22;1368;49.484;11.112;2022-07-06T08:03:11;32.40;52.50
2721;DHT22;1368;49.484;11.112;2022-07-06T08:05:37;33.60;51.90
2721;DHT22;1368;49.484;11.112;2022-07-06T08:08:03;34.40;50.90
2721;DHT22;1368;49.484;11.112;2022-07-06T08:10:29;34.80;50.60
2721;DHT22;1368;49.484;11.112;2022-07-06T08:12:55;35.20;49.90
2721;DHT22;1368;49.484;11.112;2022-07-06T08:15:21;35.40;49.30
2721;DHT22;1368;49.484;11.112;2022-07-06T08:17:46;34.90;48.00
2721;DHT22;1368;49.484;11.112;2022-07-06T08:20:12;34.40;46.70
2721;DHT22;1368;49.484;11.112;2022-07-06T08:22:38;34.50;47.80
2721;DHT22;1368;49.484;11.112;2022-07-06T08:25:04;35.20;48.30
2721;DHT22;1368;49.484;11.112;2022-07-06T08:27:30;35.70;47.40
2721;DHT22;1368;49.484;11.112;2022-07-06T08:29:56;35.80;44.90
2721;DHT22;1368;49.484;11.112;2022-07-06T08:32:22;35.50;45.30
2721;DHT22;1368;49.484;11.112;2022-07-06T08:34:47;36.20;47.10
2721;DHT22;1368;49.484;11.112;2022-07-06T08:37:13;36.40;45.70
2721;DHT22;1368;49.484;11.112;2022-07-06T08:39:39;37.00;45.70
2721;DHT22;1368;49.484;11.112;2022-07-06T08:42:05;37.30;44.40
2721;DHT22;1368;49.484;11.112;2022-07-06T08:44:32;37.40;44.50
2721;DHT22;1368;49.484;11.112;2022-07-06T08:47:04;37.30;45.20
2721;DHT22;1368;49.484;11.112;2022-07-06T08:49:31;36.80;44.20
2721;DHT22;1368;49.484;11.112;2022-07-06T08:51:57;36.30;44.10
2721;DHT22;1368;49.484;11.112;2022-07-06T08:54:23;35.70;43.80
2721;DHT22;1368;49.484;11.112;2022-07-06T08:56:50;36.00;45.70
2721;DHT22;1368;49.484;11.112;2022-07-06T08:59:16;36.60;44.80
2721;DHT22;1368;49.484;11.112;2022-07-06T09:01:44;36.90;44.60
2721;DHT22;1368;49.484;11.112;2022-07-06T09:04:12;37.00;44.40
2721;DHT22;1368;49.484;11.112;2022-07-06T09:06:41;36.80;45.20
2721;DHT22;1368;49.484;11.112;2022-07-06T09:09:07;36.70;45.00
2721;DHT22;1368;49.484;11.112;2022-07-06T09:11:34;37.40;43.50
2721;DHT22;1368;49.484;11.112;2022-07-06T09:14:01;37.40;43.20
2721;DHT22;1368;49.484;11.112;2022-07-06T09:16:28;37.40;43.90
2721;DHT22;1368;49.484;11.112;2022-07-06T09:18:54;37.20;44.70
2721;DHT22;1368;49.484;11.112;2022-07-06T09:21:25;37.80;43.20
2721;DHT22;1368;49.484;11.112;2022-07-06T09:23:56;38.30;42.70
2721;DHT22;1368;49.484;11.112;2022-07-06T09:26:23;38.40;43.40
2721;DHT22;1368;49.484;11.112;2022-07-06T09:28:48;38.80;41.60
2721;DHT22;1368;49.484;11.112;2022-07-06T09:31:14;38.40;41.60
2721;DHT22;1368;49.484;11.112;2022-07-06T09:33:57;38.30;42.20
2721;DHT22;1368;49.484;11.112;2022-07-06T09:36:45;35.80;43.20
2721;DHT22;1368;49.484;11.112;2022-07-06T09:39:26;35.00;45.20
2721;DHT22;1368;49.484;11.112;2022-07-06T09:41:55;34.90;46.10
2721;DHT22;1368;49.484;11.112;2022-07-06T09:44:27;35.50;45.10
2721;DHT22;1368;49.484;11.112;2022-07-06T09:46:56;36.00;44.30
2721;DHT22;1368;49.484;11.112;2022-07-06T09:49:22;36.40;43.70
2721;DHT22;1368;49.484;11.112;2022-07-06T09:51:53;36.90;43.70
2721;DHT22;1368;49.484;11.112;2022-07-06T09:54:19;36.70;43.90
2721;DHT22;1368;49.484;11.112;2022-07-06T09:56:47;37.20;43.90
2721;DHT22;1368;49.484;11.112;2022-07-06T09:59:21;36.50;43.30
2721;DHT22;1368;49.484;11.112;2022-07-06T10:01:49;35.10;43.60
2721;DHT22;1368;49.484;11.112;2022-07-06T10:04:15;34.30;44.90
2721;DHT22;1368;49.484;11.112;2022-07-06T10:06:44;33.50;45.60
2721;DHT22;1368;49.484;11.112;2022-07-06T10:09:12;33.20;46.30
2721;DHT22;1368;49.484;11.112;2022-07-06T10:11:42;33.90;45.30
2721;DHT22;1368;49.484;11.112;2022-07-06T10:14:10;31.90;45.90
2721;DHT22;1368;49.484;11.112;2022-07-06T10:16:39;30.40;49.10
2721;DHT22;1368;49.484;11.112;2022-07-06T10:19:06;31.30;48.50
2721;DHT22;1368;49.484;11.112;2022-07-06T10:21:35;31.80;47.40
2721;DHT22;1368;49.484;11.112;2022-07-06T10:24:02;31.60;47.90
2721;DHT22;1368;49.484;11.112;2022-07-06T10:26:28;32.00;48.20
2721;DHT22;1368;49.484;11.112;2022-07-06T10:28:58;32.40;47.60
2721;DHT22;1368;49.484;11.112;2022-07-06T10:31:23;32.10;47.70
2721;DHT22;1368;49.484;11.112;2022-07-06T10:33:50;31.70;48.00
2721;DHT22;1368;49.484;11.112;2022-07-06T10:36:16;31.20;49.30
2721;DHT22;1368;49.484;11.112;2022-07-06T10:38:48;30.70;48.50
2721;DHT22;1368;49.484;11.112;2022-07-06T10:41:14;30.60;50.40
2721;DHT22;1368;49.484;11.112;2022-07-06T10:43:44;30.70;48.00
2721;DHT22;1368;49.484;11.112;2022-07-06T10:46:11;30.70;48.80
2721;DHT22;1368;49.484;11.112;2022-07-06T10:48:45;31.10;50.00
2721;DHT22;1368;49.484;11.112;2022-07-06T10:51:12;31.20;48.70
2721;DHT22;1368;49.484;11.112;2022-07-06T10:53:55;31.10;49.30
2721;DHT22;1368;49.484;11.112;2022-07-06T10:56:38;31.30;49.40
2721;DHT22;1368;49.484;11.112;2022-07-06T10:59:24;31.60;50.60
2721;DHT22;1368;49.484;11.112;2022-07-06T11:02:14;32.30;48.20
2721;DHT22;1368;49.484;11.112;2022-07-06T11:04:42;33.00;48.10
2721;DHT22;1368;49.484;11.112;2022-07-06T11:07:16;33.10;47.20
2721;DHT22;1368;49.484;11.112;2022-07-06T11:09:56;31.70;48.30
2721;DHT22;1368;49.484;11.112;2022-07-06T11:12:22;30.40;49.50
2721;DHT22;1368;49.484;11.112;2022-07-06T11:14:49;29.20;50.80
2721;DHT22;1368;49.484;11.112;2022-07-06T11:17:16;29.20;51.90
2721;DHT22;1368;49.484;11.112;2022-07-06T11:22:15;31.20;49.50
2721;DHT22;1368;49.484;11.112;2022-07-06T11:24:42;31.80;48.50
2721;DHT22;1368;49.484;11.112;2022-07-06T11:27:08;31.70;48.80
2721;DHT22;1368;49.484;11.112;2022-07-06T11:29:34;31.50;48.60
2721;DHT22;1368;49.484;11.112;2022-07-06T11:32:02;31.20;49.00
2721;DHT22;1368;49.484;11.112;2022-07-06T11:34:49;30.90;50.60
2721;DHT22;1368;49.484;11.112;2022-07-06T11:37:15;31.10;49.40
2721;DHT22;1368;49.484;11.112;2022-07-06T11:39:42;31.10;48.70
2721;DHT22;1368;49.484;11.112;2022-07-06T11:42:09;31.30;49.20
2721;DHT22;1368;49.484;11.112;2022-07-06T11:44:36;31.50;49.70
2721;DHT22;1368;49.484;11.112;2022-07-06T11:47:03;31.90;47.70
2721;DHT22;1368;49.484;11.112;2022-07-06T11:49:32;31.90;48.20
2721;DHT22;1368;49.484;11.112;2022-07-06T11:51:59;31.50;47.60
2721;DHT22;1368;49.484;11.112;2022-07-06T11:54:26;31.00;48.40
2721;DHT22;1368;49.484;11.112;2022-07-06T11:59:24;30.70;48.10
2721;DHT22;1368;49.484;11.112;2022-07-06T12:01:57;30.20;48.80
2721;DHT22;1368;49.484;11.112;2022-07-06T12:04:24;30.00;48.60
2721;DHT22;1368;49.484;11.112;2022-07-06T12:06:50;30.00;48.80
2721;DHT22;1368;49.484;11.112;2022-07-06T12:09:16;29.50;48.20
2721;DHT22;1368;49.484;11.112;2022-07-06T12:11:44;28.70;50.30
2721;DHT22;1368;49.484;11.112;2022-07-06T12:14:20;28.50;50.00
2721;DHT22;1368;49.484;11.112;2022-07-06T12:16:48;28.60;51.50
2721;DHT22;1368;49.484;11.112;2022-07-06T12:19:15;28.70;51.00
2721;DHT22;1368;49.484;11.112;2022-07-06T12:21:51;29.00;49.80
2721;DHT22;1368;49.484;11.112;2022-07-06T12:24:21;29.00;50.60
2721;DHT22;1368;49.484;11.112;2022-07-06T12:26:48;29.50;51.40
2721;DHT22;1368;49.484;11.112;2022-07-06T12:29:14;29.90;49.40
2721;DHT22;1368;49.484;11.112;2022-07-06T12:31:42;30.00;50.00
2721;DHT22;1368;49.484;11.112;2022-07-06T12:34:16;29.70;51.30
2721;DHT22;1368;49.484;11.112;2022-07-06T12:36:54;30.00;49.00
2721;DHT22;1368;49.484;11.112;2022-07-06T12:39:22;30.10;47.60
2721;DHT22;1368;49.484;11.112;2022-07-06T12:41:55;30.30;47.90
2721;DHT22;1368;49.484;11.112;2022-07-06T12:44:24;30.60;48.40
2721;DHT22;1368;49.484;11.112;2022-07-06T12:47:00;30.40;48.40
2721;DHT22;1368;49.484;11.112;2022-07-06T12:49:27;30.10;49.20
2721;DHT22;1368;49.484;11.112;2022-07-06T12:51:53;29.50;47.10
2721;DHT22;1368;49.484;11.112;2022-07-06T12:54:19;29.20;48.50
2721;DHT22;1368;49.484;11.112;2022-07-06T12:57:02;29.20;48.50
2721;DHT22;1368;49.484;11.112;2022-07-06T12:59:28;29.40;48.20
2721;DHT22;1368;49.484;11.112;2022-07-06T13:01:54;29.70;47.40
2721;DHT22;1368;49.484;11.112;2022-07-06T13:04:32;29.70;47.10
2721;DHT22;1368;49.484;11.112;2022-07-06T13:06:59;29.80;47.70
2721;DHT22;1368;49.484;11.112;2022-07-06T13:09:26;29.80;48.50
2721;DHT22;1368;49.484;11.112;2022-07-06T13:11:52;29.50;49.20
2721;DHT22;1368;49.484;11.112;2022-07-06T13:14:18;29.40;49.40
2721;DHT22;1368;49.484;11.112;2022-07-06T13:16:44;29.20;48.40
2721;DHT22;1368;49.484;11.112;2022-07-06T13:19:11;28.20;50.20
2721;DHT22;1368;49.484;11.112;2022-07-06T13:21:36;28.30;50.90
2721;DHT22;1368;49.484;11.112;2022-07-06T13:24:03;28.70;50.00
2721;DHT22;1368;49.484;11.112;2022-07-06T13:26:29;28.90;49.40
2721;DHT22;1368;49.484;11.112;2022-07-06T13:28:55;29.10;48.80
2721;DHT22;1368;49.484;11.112;2022-07-06T13:31:20;29.30;48.70
2721;DHT22;1368;49.484;11.112;2022-07-06T13:33:46;29.20;48.50
2721;DHT22;1368;49.484;11.112;2022-07-06T13:36:12;29.10;48.20
2721;DHT22;1368;49.484;11.112;2022-07-06T13:38:37;29.10;47.70
2721;DHT22;1368;49.484;11.112;2022-07-06T13:41:03;29.10;48.60
2721;DHT22;1368;49.484;11.112;2022-07-06T13:43:28;29.00;49.20
2721;DHT22;1368;49.484;11.112;2022-07-06T13:46:05;28.50;50.10
2721;DHT22;1368;49.484;11.112;2022-07-06T13:48:31;28.40;50.00
2721;DHT22;1368;49.484;11.112;2022-07-06T13:50:58;28.20;50.80
2721;DHT22;1368;49.484;11.112;2022-07-06T13:53:23;28.30;50.10
2721;DHT22;1368;49.484;11.112;2022-07-06T13:55:49;28.60;50.90
2721;DHT22;1368;49.484;11.112;2022-07-06T13:58:14;28.60;49.90
2721;DHT22;1368;49.484;11.112;2022-07-06T14:00:40;28.90;49.20
2721;DHT22;1368;49.484;11.112;2022-07-06T14:03:06;29.20;50.40
2721;DHT22;1368;49.484;11.112;2022-07-06T14:05:32;29.50;49.30
2721;DHT22;1368;49.484;11.112;2022-07-06T14:07:57;29.70;47.40
2721;DHT22;1368;49.484;11.112;2022-07-06T14:10:23;29.50;48.10
2721;DHT22;1368;49.484;11.112;2022-07-06T14:12:49;29.40;47.30
2721;DHT22;1368;49.484;11.112;2022-07-06T14:15:15;29.20;47.00
2721;DHT22;1368;49.484;11.112;2022-07-06T14:17:40;28.80;48.40
2721;DHT22;1368;49.484;11.112;2022-07-06T14:20:07;28.80;49.10
2721;DHT22;1368;49.484;11.112;2022-07-06T14:22:32;28.80;48.80
2721;DHT22;1368;49.484;11.112;2022-07-06T14:24:59;28.30;49.60
2721;DHT22;1368;49.484;11.112;2022-07-06T14:27:24;27.90;49.80
2721;DHT22;1368;49.484;11.112;2022-07-06T14:29:50;27.80;50.30
2721;DHT22;1368;49.484;11.112;2022-07-06T14:32:16;27.70;49.90
2721;DHT22;1368;49.484;11.112;2022-07-06T14:34:41;27.70;50.30
2721;DHT22;1368;49.484;11.112;2022-07-06T14:37:07;28.00;49.70
2721;DHT22;1368;49.484;11.112;2022-07-06T14:39:33;28.20;49.50
2721;DHT22;1368;49.484;11.112;2022-07-06T14:41:58;28.30;49.60
2721;DHT22;1368;49.484;11.112;2022-07-06T14:44:24;28.40;48.40
2721;DHT22;1368;49.484;11.112;2022-07-06T14:46:49;28.20;48.20
2721;DHT22;1368;49.484;11.112;2022-07-06T14:49:15;28.10;48.80
2721;DHT22;1368;49.484;11.112;2022-07-06T14:51:41;28.10;48.20
2721;DHT22;1368;49.484;11.112;2022-07-06T14:54:06;27.90;47.10
2721;DHT22;1368;49.484;11.112;2022-07-06T14:56:32;27.80;46.70
2721;DHT22;1368;49.484;11.112;2022-07-06T14:58:57;27.70;47.20
2721;DHT22;1368;49.484;11.112;2022-07-06T15:01:23;27.70;48.10
2721;DHT22;1368;49.484;11.112;2022-07-06T15:03:48;27.50;49.50
2721;DHT22;1368;49.484;11.112;2022-07-06T15:06:14;27.60;48.80
2721;DHT22;1368;49.484;11.112;2022-07-06T15:08:40;27.40;49.00
2721;DHT22;1368;49.484;11.112;2022-07-06T15:11:06;27.50;48.90
2721;DHT22;1368;49.484;11.112;2022-07-06T15:13:31;27.40;49.00
2721;DHT22;1368;49.484;11.112;2022-07-06T15:15:57;27.40;47.90
2721;DHT22;1368;49.484;11.112;2022-07-06T15:18:23;27.60;48.30
2721;DHT22;1368;49.484;11.112;2022-07-06T15:20:48;27.40;47.10
2721;DHT22;1368;49.484;11.112;2022-07-06T15:23:14;27.40;47.60
2721;DHT22;1368;49.484;11.112;2022-07-06T15:25:39;27.30;47.10
2721;DHT22;1368;49.484;11.112;2022-07-06T15:28:05;27.20;47.60
2721;DHT22;1368;49.484;11.112;2022-07-06T15:30:30;27.30;47.60
2721;DHT22;1368;49.484;11.112;2022-07-06T15:32:58;27.40;47.80
2721;DHT22;1368;49.484;11.112;2022-07-06T15:35:24;27.30;48.00
2721;DHT22;1368;49.484;11.112;2022-07-06T15:37:49;27.20;48.50
2721;DHT22;1368;49.484;11.112;2022-07-06T15:40:15;27.30;48.40
2721;DHT22;1368;49.484;11.112;2022-07-06T15:42:46;27.40;47.80
2721;DHT22;1368;49.484;11.112;2022-07-06T15:45:12;27.20;48.00
2721;DHT22;1368;49.484;11.112;2022-07-06T15:47:39;26.60;47.30